createdAt,value
2018-02-07T00:00:34.112Z,18.85
2018-02-07T00:03:03.118Z,19.87
2018-02-07T00:05:31.266Z,19.02
2018-02-07T00:07:59.374Z,18.65
2018-02-07T00:10:27.550Z,18.33
2018-02-07T00:12:55.690Z,18.30
2018-02-07T00:15:24.602Z,18.67
2018-02-07T00:17:52.742Z,18.60
2018-02-07T00:20:20.856Z,18.73
2018-02-07T00:22:49.006Z,18.25
2018-02-07T00:25:17.980Z,17.83
2018-02-07T00:27:46.092Z,17.83
2018-02-07T00:30:14.250Z,18.45
2018-02-07T00:32:42.434Z,18.25
2018-02-07T00:35:10.552Z,17.75
2018-02-07T00:37:38.687Z,18.25
2018-02-07T00:40:06.822Z,17.87
2018-02-07T00:42:35.732Z,17.98
2018-02-07T00:45:04.606Z,17.90
2018-02-07T00:47:33.484Z,17.40
2018-02-07T00:50:01.674Z,17.55
2018-02-07T00:52:30.572Z,17.67
2018-02-07T00:54:58.731Z,18.00
2018-02-07T00:57:27.636Z,17.65
2018-02-07T00:59:55.762Z,17.85
2018-02-07T01:02:23.906Z,17.70
2018-02-07T01:04:52.034Z,17.27
2018-02-07T01:07:20.912Z,18.10
2018-02-07T01:09:49.824Z,17.05
2018-02-07T01:12:18.831Z,17.90
2018-02-07T01:14:46.955Z,16.55
2018-02-07T01:17:15.071Z,16.85
2018-02-07T01:19:43.210Z,17.73
2018-02-07T01:22:11.328Z,17.67
2018-02-07T01:24:39.468Z,16.95
2018-02-07T01:27:08.359Z,17.90
2018-02-07T01:29:37.271Z,17.10
2018-02-07T01:32:05.396Z,18.40
2018-02-07T01:34:33.535Z,17.50
2018-02-07T01:37:01.656Z,18.08
2018-02-07T01:39:29.771Z,18.27
2018-02-07T01:41:57.919Z,17.77
2018-02-07T01:44:26.843Z,18.30
2018-02-07T01:46:54.955Z,17.30
2018-02-07T01:49:23.163Z,17.30
2018-02-07T01:51:51.297Z,18.73
2018-02-07T01:54:19.448Z,17.92
2018-02-07T01:56:47.571Z,18.15
2018-02-07T01:59:16.455Z,18.98
2018-02-07T02:01:45.343Z,17.25
2018-02-07T02:04:14.243Z,19.12
2018-02-07T02:06:43.139Z,18.23
2018-02-07T02:09:11.259Z,17.55
2018-02-07T02:11:39.379Z,17.55
2018-02-07T02:14:08.287Z,18.50
2018-02-07T02:16:36.423Z,18.10
2018-02-07T02:19:05.312Z,18.58
2018-02-07T02:21:34.196Z,17.62
2018-02-07T02:24:02.399Z,17.55
2018-02-07T02:26:30.558Z,17.25
2018-02-07T02:28:59.447Z,18.62
2018-02-07T02:31:28.359Z,18.15
2018-02-07T02:33:56.491Z,17.90
2018-02-07T02:36:36.539Z,17.58
2018-02-07T02:39:04.673Z,17.98
2018-02-07T02:41:32.796Z,16.25
2018-02-07T02:44:00.927Z,18.27
2018-02-07T02:46:29.055Z,18.50
2018-02-07T02:48:57.947Z,18.87
2018-02-07T02:51:26.842Z,17.33
2018-02-07T02:53:54.990Z,17.23
2018-02-07T02:56:23.203Z,17.95
2018-02-07T02:58:51.365Z,18.50
2018-02-07T03:01:19.499Z,18.55
2018-02-07T03:03:47.643Z,17.98
2018-02-07T03:06:15.795Z,18.15
2018-02-07T03:08:43.935Z,17.80
2018-02-07T03:11:12.123Z,18.48
2018-02-07T03:13:40.314Z,17.12
2018-02-07T03:16:08.434Z,17.90
2018-02-07T03:18:36.557Z,17.87
2018-02-07T03:21:04.715Z,17.70
2018-02-07T03:23:32.886Z,17.70
2018-02-07T03:26:01.788Z,17.52
2018-02-07T03:28:29.954Z,18.40
2018-02-07T03:30:58.279Z,16.83
2018-02-07T03:33:26.398Z,18.15
2018-02-07T03:35:54.554Z,17.60
2018-02-07T03:38:23.462Z,17.17
2018-02-07T03:40:52.352Z,17.40
2018-02-07T03:43:20.490Z,17.85
2018-02-07T03:45:48.630Z,17.60
2018-02-07T03:48:16.773Z,17.73
2018-02-07T03:50:44.896Z,17.12
2018-02-07T03:53:13.007Z,17.50
2018-02-07T03:55:41.194Z,17.30
2018-02-07T03:58:09.310Z,17.73
2018-02-07T04:00:37.418Z,17.70
2018-02-07T04:03:06.318Z,16.92
2018-02-07T04:05:34.470Z,17.45
2018-02-07T04:08:03.352Z,17.83
2018-02-07T04:10:31.476Z,18.45
2018-02-07T04:12:59.632Z,18.85
2018-02-07T04:15:27.762Z,16.98
2018-02-07T04:17:56.658Z,17.50
2018-02-07T04:20:24.774Z,17.95
2018-02-07T04:22:52.924Z,17.73
2018-02-07T04:25:21.828Z,18.87
2018-02-07T04:27:49.980Z,19.35
2018-02-07T04:30:18.873Z,18.40
2018-02-07T04:32:47.750Z,19.12
2018-02-07T04:35:16.655Z,18.08
2018-02-07T04:37:45.563Z,18.42
2018-02-07T04:40:13.674Z,20.10
2018-02-07T04:42:41.790Z,19.00
2018-02-07T04:45:09.941Z,18.90
2018-02-07T04:47:38.100Z,17.52
2018-02-07T04:50:06.322Z,18.35
2018-02-07T04:52:35.193Z,19.08
2018-02-07T04:55:04.098Z,19.80
2018-02-07T04:57:32.221Z,19.30
2018-02-07T05:00:00.370Z,20.17
2018-02-07T05:02:28.513Z,20.08
2018-02-07T05:04:56.684Z,17.40
2018-02-07T05:07:24.835Z,19.12
2018-02-07T05:09:53.727Z,19.77
2018-02-07T05:12:21.881Z,19.90
2018-02-07T05:14:50.108Z,19.45
2018-02-07T05:17:18.263Z,19.67
2018-02-07T05:19:46.448Z,19.92
2018-02-07T05:22:14.620Z,19.77
2018-02-07T05:24:42.783Z,19.73
2018-02-07T05:27:10.915Z,20.55
2018-02-07T05:29:40.539Z,19.95
2018-02-07T05:32:08.657Z,19.80
2018-02-07T05:34:36.787Z,19.67
2018-02-07T05:37:04.915Z,20.95
2018-02-07T05:39:33.035Z,21.00
2018-02-07T05:42:01.927Z,20.62
2018-02-07T05:44:31.051Z,20.92
2018-02-07T05:46:59.179Z,21.65
2018-02-07T05:49:27.295Z,21.52
2018-02-07T05:51:55.412Z,21.10
2018-02-07T05:54:23.543Z,20.62
2018-02-07T05:56:51.699Z,20.95
2018-02-07T05:59:19.815Z,21.10
2018-02-07T06:01:47.939Z,21.37
2018-02-07T06:04:16.837Z,21.23
2018-02-07T06:06:44.991Z,21.77
2018-02-07T06:09:13.871Z,20.48
2018-02-07T06:11:42.791Z,21.30
2018-02-07T06:14:10.931Z,22.73
2018-02-07T06:16:39.063Z,20.95
2018-02-07T06:19:07.201Z,23.15
2018-02-07T06:21:36.071Z,23.62
2018-02-07T06:24:05.085Z,20.95
2018-02-07T06:26:33.259Z,22.80
2018-02-07T06:29:01.417Z,22.13
2018-02-07T06:31:30.317Z,21.95
2018-02-07T06:33:58.487Z,22.30
2018-02-07T06:36:27.511Z,22.77
2018-02-07T06:38:55.771Z,23.83
2018-02-07T06:41:23.875Z,22.08
2018-02-07T06:43:51.986Z,23.25
2018-02-07T06:46:20.884Z,22.77
2018-02-07T06:48:49.883Z,22.87
2018-02-07T06:51:18.040Z,23.52
2018-02-07T06:53:46.152Z,21.67
2018-02-07T06:56:14.442Z,23.00
2018-02-07T06:58:42.608Z,22.77
2018-02-07T07:01:10.751Z,22.62
2018-02-07T07:03:38.924Z,23.48
2018-02-07T07:06:07.298Z,23.85
2018-02-07T07:08:35.473Z,23.33
2018-02-07T07:11:03.755Z,23.87
2018-02-07T07:13:31.930Z,24.48
2018-02-07T07:16:00.051Z,24.05
2018-02-07T07:18:28.202Z,24.58
2018-02-07T07:20:56.358Z,24.60
2018-02-07T07:23:24.474Z,23.27
2018-02-07T07:25:52.592Z,24.00
2018-02-07T07:28:20.728Z,23.55
2018-02-07T07:30:48.854Z,24.90
2018-02-07T07:33:16.990Z,24.85
2018-02-07T07:35:45.908Z,24.12
2018-02-07T07:38:14.046Z,23.80
2018-02-07T07:40:42.984Z,24.50
2018-02-07T07:43:11.128Z,24.58
2018-02-07T07:45:39.250Z,24.92
2018-02-07T07:48:07.432Z,25.55
2018-02-07T07:50:35.582Z,25.98
2018-02-07T07:53:03.698Z,26.15
2018-02-07T07:55:32.734Z,25.50
2018-02-07T07:58:00.882Z,25.35
2018-02-07T08:00:28.983Z,24.23
2018-02-07T08:02:57.108Z,25.30
2018-02-07T08:05:26.019Z,24.50
2018-02-07T08:07:54.189Z,25.27
2018-02-07T08:10:22.366Z,25.77
2018-02-07T08:12:50.547Z,25.30
2018-02-07T08:15:18.877Z,26.30
2018-02-07T08:17:47.036Z,25.83
2018-02-07T08:20:15.161Z,25.90
2018-02-07T08:22:43.279Z,26.62
2018-02-07T08:25:11.421Z,25.65
2018-02-07T08:27:39.555Z,26.12
2018-02-07T08:30:08.459Z,25.70
2018-02-07T08:32:36.619Z,26.87
2018-02-07T08:35:05.619Z,27.92
2018-02-07T08:37:33.855Z,27.25
2018-02-07T08:40:01.977Z,27.05
2018-02-07T08:42:30.173Z,26.75
2018-02-07T08:44:58.431Z,27.52
2018-02-07T08:47:26.579Z,26.62
2018-02-07T08:49:55.507Z,26.75
2018-02-07T08:52:23.635Z,27.70
2018-02-07T08:54:51.739Z,27.67
2018-02-07T08:57:19.869Z,27.27
2018-02-07T08:59:49.633Z,30.05
2018-02-07T09:02:17.735Z,28.05
2018-02-07T09:04:45.973Z,28.77
2018-02-07T09:07:14.241Z,28.02
2018-02-07T09:09:42.403Z,28.83
2018-02-07T09:12:10.531Z,29.65
2018-02-07T09:14:38.691Z,29.37
2018-02-07T09:17:06.811Z,30.20
2018-02-07T09:19:35.821Z,28.90
2018-02-07T09:22:03.985Z,29.77
2018-02-07T09:24:32.096Z,29.52
2018-02-07T09:27:00.272Z,28.87
2018-02-07T09:29:28.399Z,30.02
2018-02-07T09:31:56.517Z,29.50
2018-02-07T09:34:24.753Z,29.17
2018-02-07T09:36:52.883Z,29.08
2018-02-07T09:39:22.634Z,29.77
2018-02-07T09:41:50.755Z,29.80
2018-02-07T09:44:18.863Z,29.77
2018-02-07T09:46:47.779Z,29.30
2018-02-07T09:49:15.935Z,30.00
2018-02-07T09:51:44.091Z,30.27
2018-02-07T09:54:12.203Z,30.15
2018-02-07T09:56:40.456Z,30.73
2018-02-07T09:59:08.591Z,30.35
2018-02-07T10:01:36.717Z,31.17
2018-02-07T10:04:04.871Z,30.92
2018-02-07T10:06:33.007Z,30.25
2018-02-07T10:09:01.199Z,30.58
2018-02-07T10:11:30.133Z,29.95
2018-02-07T10:13:58.231Z,31.80
2018-02-07T10:16:26.363Z,30.80
2018-02-07T10:18:54.498Z,31.15
2018-02-07T10:21:22.694Z,30.40
2018-02-07T10:23:50.819Z,30.62
2018-02-07T10:26:18.994Z,30.98
2018-02-07T10:28:47.137Z,31.87
2018-02-07T10:31:15.387Z,30.80
2018-02-07T10:33:43.545Z,32.20
2018-02-07T10:36:12.442Z,31.37
2018-02-07T10:38:41.334Z,31.52
2018-02-07T10:41:10.230Z,31.48
2018-02-07T10:43:38.354Z,30.90
2018-02-07T10:46:06.482Z,31.40
2018-02-07T10:48:34.655Z,30.37
2018-02-07T10:51:02.810Z,30.83
2018-02-07T10:53:31.710Z,29.52
2018-02-07T10:55:59.874Z,32.03
2018-02-07T10:58:28.773Z,30.45
2018-02-07T11:00:56.938Z,31.02
2018-02-07T11:03:25.819Z,30.75
2018-02-07T11:05:54.710Z,29.60
2018-02-07T11:08:23.712Z,31.05
2018-02-07T11:10:52.600Z,30.02
2018-02-07T11:13:21.473Z,31.23
2018-02-07T11:15:49.620Z,31.02
2018-02-07T11:18:17.754Z,30.58
2018-02-07T11:20:45.886Z,28.50
2018-02-07T11:23:14.068Z,30.80
2018-02-07T11:25:42.986Z,30.25
2018-02-07T11:28:11.210Z,31.08
2018-02-07T11:30:40.152Z,31.05
2018-02-07T11:33:08.284Z,31.50
2018-02-07T11:35:36.400Z,30.73
2018-02-07T11:38:04.560Z,31.45
2018-02-07T11:40:32.708Z,30.58
2018-02-07T11:43:00.816Z,30.25
2018-02-07T11:45:28.984Z,31.52
2018-02-07T11:47:57.157Z,29.92
2018-02-07T11:50:25.320Z,30.67
2018-02-07T11:52:53.428Z,31.20
2018-02-07T11:55:21.544Z,29.77
2018-02-07T11:57:49.693Z,30.48
2018-02-07T12:00:17.820Z,31.73
2018-02-07T12:02:45.982Z,28.67
2018-02-07T12:05:14.095Z,30.05
2018-02-07T12:07:42.228Z,29.98
2018-02-07T12:10:10.428Z,29.48
2018-02-07T12:12:38.512Z,28.08
2018-02-07T12:15:06.614Z,28.65
2018-02-07T12:17:35.523Z,28.42
2018-02-07T12:20:04.423Z,28.35
2018-02-07T12:22:32.555Z,28.45
2018-02-07T12:25:00.670Z,28.48
2018-02-07T12:27:28.815Z,28.05
2018-02-07T12:29:57.007Z,28.80
2018-02-07T12:32:25.879Z,27.73
2018-02-07T12:34:54.787Z,28.80
2018-02-07T12:37:23.813Z,27.58
2018-02-07T12:39:51.919Z,28.98
2018-02-07T12:42:20.031Z,28.83
2018-02-07T12:44:48.163Z,28.02
2018-02-07T12:47:17.794Z,27.10
2018-02-07T12:49:46.725Z,27.00
2018-02-07T12:52:14.879Z,25.33
2018-02-07T12:54:42.978Z,25.73
2018-02-07T12:57:11.089Z,26.35
2018-02-07T12:59:39.240Z,25.23
2018-02-07T13:02:07.339Z,25.25
2018-02-07T13:04:36.211Z,24.52
2018-02-07T13:07:04.364Z,25.15
2018-02-07T13:09:32.622Z,25.77
2018-02-07T13:12:00.715Z,23.90
2018-02-07T13:14:28.827Z,23.17
2018-02-07T13:16:57.714Z,23.55
2018-02-07T13:19:26.664Z,22.33
2018-02-07T13:21:54.754Z,22.48
2018-02-07T13:24:22.919Z,21.92
2018-02-07T13:26:51.043Z,22.13
2018-02-07T13:29:19.304Z,21.37
2018-02-07T13:31:48.182Z,21.45
2018-02-07T13:34:17.058Z,22.23
2018-02-07T13:36:45.199Z,21.15
2018-02-07T13:39:13.350Z,20.10
2018-02-07T13:41:41.466Z,20.60
2018-02-07T13:44:09.576Z,20.65
2018-02-07T13:46:37.750Z,21.52
2018-02-07T13:49:06.682Z,20.83
2018-02-07T13:51:34.818Z,19.73
2018-02-07T13:54:02.935Z,20.35
2018-02-07T13:56:31.061Z,19.27
2018-02-07T13:58:59.174Z,19.08
2018-02-07T14:01:27.298Z,19.90
2018-02-07T14:03:56.187Z,18.33
2018-02-07T14:06:25.054Z,18.45
2018-02-07T14:08:53.284Z,18.50
2018-02-07T14:11:21.440Z,17.33
2018-02-07T14:13:49.554Z,18.00
2018-02-07T14:16:17.664Z,18.08
2018-02-07T14:18:46.611Z,18.75
2018-02-07T14:21:14.762Z,17.37
2018-02-07T14:23:42.870Z,17.83
2018-02-07T14:26:11.184Z,17.35
2018-02-07T14:28:39.384Z,17.55
2018-02-07T14:31:07.538Z,17.58
2018-02-07T14:33:35.660Z,16.65
2018-02-07T14:36:03.808Z,17.25
2018-02-07T14:38:31.939Z,17.05
2018-02-07T14:41:00.084Z,16.05
2018-02-07T14:43:28.182Z,16.48
2018-02-07T14:45:57.070Z,16.25
2018-02-07T14:48:25.980Z,16.42
2018-02-07T14:50:54.099Z,16.67
2018-02-07T14:53:22.307Z,16.58
2018-02-07T14:55:51.183Z,16.42
2018-02-07T14:58:19.379Z,16.55
2018-02-07T15:00:48.272Z,16.67
2018-02-07T15:03:16.428Z,16.10
2018-02-07T15:05:45.329Z,16.75
2018-02-07T15:08:14.246Z,15.95
2018-02-07T15:10:42.371Z,15.75
2018-02-07T15:13:10.564Z,15.95
2018-02-07T15:15:38.700Z,16.83
2018-02-07T15:18:06.914Z,17.08
2018-02-07T15:20:35.833Z,16.25
2018-02-07T15:23:03.932Z,16.77
2018-02-07T15:25:32.079Z,16.33
2018-02-07T15:28:00.192Z,16.42
2018-02-07T15:30:29.111Z,16.05
2018-02-07T15:32:57.227Z,16.83
2018-02-07T15:35:25.355Z,17.33
2018-02-07T15:37:53.483Z,17.12
2018-02-07T15:40:21.731Z,17.05
2018-02-07T15:42:49.847Z,16.75
2018-02-07T15:45:17.973Z,16.90
2018-02-07T15:47:46.084Z,16.00
2018-02-07T15:50:14.297Z,16.62
2018-02-07T15:52:42.432Z,16.65
2018-02-07T15:55:10.639Z,15.68
2018-02-07T15:57:38.815Z,15.32
2018-02-07T16:00:06.945Z,15.40
2018-02-07T16:02:35.063Z,16.52
2018-02-07T16:05:03.241Z,16.10
2018-02-07T16:07:32.223Z,16.02
2018-02-07T16:10:00.401Z,15.63
2018-02-07T16:12:28.558Z,16.35
2018-02-07T16:14:57.588Z,16.00
2018-02-07T16:17:25.762Z,15.55
2018-02-07T16:19:53.866Z,15.70
2018-02-07T16:22:22.078Z,15.80
2018-02-07T16:24:50.961Z,15.43
2018-02-07T16:27:19.848Z,14.90
2018-02-07T16:29:48.777Z,15.38
2018-02-07T16:32:16.931Z,15.68
2018-02-07T16:34:45.093Z,15.48
2018-02-07T16:37:13.971Z,15.95
2018-02-07T16:39:42.863Z,15.75
2018-02-07T16:42:11.758Z,16.17
2018-02-07T16:44:40.665Z,16.20
2018-02-07T16:47:08.875Z,16.10
2018-02-07T16:49:36.999Z,14.70
2018-02-07T16:52:05.916Z,16.05
2018-02-07T16:54:34.035Z,15.60
2018-02-07T16:57:02.941Z,16.50
2018-02-07T16:59:31.818Z,16.45
2018-02-07T17:01:59.952Z,15.98
2018-02-07T17:04:28.077Z,16.50
2018-02-07T17:06:57.070Z,16.27
2018-02-07T17:09:25.945Z,15.77
2018-02-07T17:11:54.138Z,16.17
2018-02-07T17:14:23.038Z,16.27
2018-02-07T17:16:51.243Z,16.27
2018-02-07T17:19:19.416Z,15.98
2018-02-07T17:21:47.554Z,16.70
2018-02-07T17:24:15.669Z,17.30
2018-02-07T17:26:43.806Z,16.67
2018-02-07T17:29:11.926Z,17.12
2018-02-07T17:31:40.092Z,16.50
2018-02-07T17:34:08.230Z,16.77
2018-02-07T17:36:36.376Z,16.55
2018-02-07T17:39:05.254Z,17.20
2018-02-07T17:41:34.176Z,17.25
2018-02-07T17:44:03.265Z,17.60
2018-02-07T17:46:31.432Z,16.65
2018-02-07T17:49:00.331Z,17.92
2018-02-07T17:51:28.491Z,18.62
2018-02-07T17:53:57.390Z,18.30
2018-02-07T17:56:26.280Z,17.33
2018-02-07T17:58:54.390Z,18.30
2018-02-07T18:01:22.542Z,17.62
2018-02-07T18:03:51.440Z,17.17
2018-02-07T18:06:19.550Z,17.87
2018-02-07T18:08:47.758Z,16.33
2018-02-07T18:11:15.889Z,16.27
2018-02-07T18:13:44.006Z,15.90
2018-02-07T18:16:12.144Z,16.15
2018-02-07T18:18:40.251Z,14.95
2018-02-07T18:21:08.410Z,15.25
2018-02-07T18:23:37.304Z,14.98
2018-02-07T18:26:06.221Z,14.30
2018-02-07T18:28:35.137Z,14.23
2018-02-07T18:31:03.455Z,13.65
2018-02-07T18:33:32.336Z,13.65
2018-02-07T18:36:01.253Z,14.73
2018-02-07T18:38:29.517Z,14.50
2018-02-07T18:40:58.447Z,14.98
2018-02-07T18:43:26.564Z,14.85
2018-02-07T18:45:54.751Z,15.05
2018-02-07T18:48:23.661Z,14.70
2018-02-07T18:50:51.784Z,14.55
2018-02-07T18:53:19.921Z,14.38
2018-02-07T18:55:48.038Z,15.40
2018-02-07T18:58:16.172Z,15.57
2018-02-07T19:00:44.420Z,15.50
2018-02-07T19:03:12.531Z,14.80
2018-02-07T19:05:40.656Z,13.38
2018-02-07T19:08:09.647Z,14.38
2018-02-07T19:10:38.531Z,14.70
2018-02-07T19:13:07.432Z,14.23
2018-02-07T19:15:35.563Z,14.10
2018-02-07T19:18:03.683Z,14.38
2018-02-07T19:20:31.799Z,14.43
2018-02-07T19:23:00.123Z,14.43
2018-02-07T19:25:28.243Z,14.98
2018-02-07T19:27:56.367Z,15.23
2018-02-07T19:30:24.550Z,15.98
2018-02-07T19:32:52.717Z,15.07
2018-02-07T19:35:20.882Z,14.70
2018-02-07T19:37:49.009Z,15.35
2018-02-07T19:40:17.253Z,15.50
2018-02-07T19:42:46.227Z,15.13
2018-02-07T19:45:14.347Z,15.07
2018-02-07T19:47:42.458Z,14.95
2018-02-07T19:50:11.363Z,15.02
2018-02-07T19:52:39.595Z,14.25
2018-02-07T19:55:07.711Z,15.93
2018-02-07T19:57:35.848Z,15.93
2018-02-07T20:00:04.007Z,15.40
2018-02-07T20:02:32.230Z,16.08
2018-02-07T20:05:00.390Z,16.05
2018-02-07T20:07:29.273Z,16.27
2018-02-07T20:09:58.183Z,16.83
2018-02-07T20:12:26.315Z,16.58
2018-02-07T20:14:54.427Z,15.95
2018-02-07T20:17:22.591Z,15.68
2018-02-07T20:19:50.770Z,17.33
2018-02-07T20:22:18.923Z,17.35
2018-02-07T20:24:47.792Z,16.85
2018-02-07T20:27:16.003Z,17.50
2018-02-07T20:29:44.166Z,17.95
2018-02-07T20:32:14.282Z,17.52
2018-02-07T20:34:43.187Z,17.20
2018-02-07T20:37:11.360Z,16.90
2018-02-07T20:39:39.491Z,16.85
2018-02-07T20:42:07.638Z,16.98
2018-02-07T20:44:35.760Z,18.30
2018-02-07T20:47:04.654Z,18.05
2018-02-07T20:49:33.562Z,18.25
2018-02-07T20:52:01.724Z,17.17
2018-02-07T20:54:30.608Z,16.67
2018-02-07T20:56:59.502Z,15.70
2018-02-07T20:59:28.410Z,17.67
2018-02-07T21:01:56.544Z,18.75
2018-02-07T21:04:24.654Z,16.70
2018-02-07T21:06:52.826Z,17.92
2018-02-07T21:09:20.944Z,17.30
2018-02-07T21:11:49.094Z,17.33
2018-02-07T21:14:17.205Z,19.23
2018-02-07T21:16:45.408Z,18.35
2018-02-07T21:19:13.568Z,18.48
2018-02-07T21:21:42.508Z,18.62
2018-02-07T21:24:10.584Z,18.65
2018-02-07T21:26:38.695Z,19.40
2018-02-07T21:29:07.604Z,18.65
2018-02-07T21:31:35.747Z,17.83
2018-02-07T21:34:03.950Z,18.87
2018-02-07T21:36:32.096Z,18.87
2018-02-07T21:39:00.264Z,18.60
2018-02-07T21:41:28.392Z,17.98
2018-02-07T21:43:56.725Z,20.17
2018-02-07T21:46:25.640Z,18.70
2018-02-07T21:48:53.800Z,19.17
2018-02-07T21:51:22.732Z,19.25
2018-02-07T21:53:50.862Z,18.33
2018-02-07T21:56:19.745Z,17.50
2018-02-07T21:58:48.652Z,18.08
2018-02-07T22:01:16.785Z,18.55
2018-02-07T22:03:44.993Z,17.98
2018-02-07T22:06:13.110Z,18.23
2018-02-07T22:08:41.240Z,17.62
2018-02-07T22:11:10.151Z,17.30
2018-02-07T22:13:38.277Z,18.98
2018-02-07T22:16:06.392Z,18.42
2018-02-07T22:18:34.535Z,17.87
2018-02-07T22:21:03.415Z,18.83
2018-02-07T22:23:32.312Z,18.62
2018-02-07T22:26:01.200Z,18.08
2018-02-07T22:28:30.106Z,17.98
2018-02-07T22:30:59.010Z,18.15
2018-02-07T22:33:27.143Z,18.25
2018-02-07T22:35:55.255Z,19.05
2018-02-07T22:38:23.407Z,19.08
2018-02-07T22:40:51.569Z,18.90
2018-02-07T22:43:19.755Z,18.17
2018-02-07T22:45:47.883Z,17.73
2018-02-07T22:48:15.996Z,18.62
2018-02-07T22:50:44.891Z,18.95
2018-02-07T22:53:13.027Z,18.40
2018-02-07T22:55:41.155Z,18.55
2018-02-07T22:58:09.287Z,19.50
2018-02-07T23:00:37.487Z,19.58
2018-02-07T23:03:05.623Z,19.30
2018-02-07T23:05:33.743Z,19.20
2018-02-07T23:08:01.867Z,19.58
2018-02-07T23:10:30.027Z,19.98
2018-02-07T23:12:58.195Z,20.42
2018-02-07T23:15:26.319Z,19.42
2018-02-07T23:17:54.432Z,19.45
2018-02-07T23:20:22.563Z,19.40
2018-02-07T23:22:50.707Z,19.90
2018-02-07T23:25:18.829Z,20.00
2018-02-07T23:27:46.979Z,19.15
2018-02-07T23:30:15.155Z,20.15
2018-02-07T23:32:43.485Z,19.17
2018-02-07T23:35:11.603Z,20.20
2018-02-07T23:37:39.727Z,19.00
2018-02-07T23:40:07.865Z,19.08
2018-02-07T23:42:36.039Z,19.90
2018-02-07T23:45:04.171Z,21.67
2018-02-07T23:47:33.095Z,21.67
2018-02-07T23:50:01.215Z,20.75
2018-02-07T23:52:29.426Z,18.50
2018-02-07T23:57:32.063Z,18.90
